sensor_id;sensor_type;location;lat;lon;timestamp;temperature;humidity
4725;DHT22;2376;53.544;10.226;2023-07-29T00:01:02;20.30;99.90
4725;DHT22;2376;53.544;10.226;2023-07-29T00:03:28;20.30;99.90
4725;DHT22;2376;53.544;10.226;2023-07-29T00:05:57;20.30;99.90
4725;DHT22;2376;53.544;10.226;2023-07-29T00:08:24;20.30;99.90
4725;DHT22;2376;53.544;10.226;2023-07-29T00:10:51;20.30;99.90
4725;DHT22;2376;53.544;10.226;2023-07-29T00:13:19;20.30;99.90
4725;DHT22;2376;53.544;10.226;2023-07-29T00:15:45;20.20;99.90
4725;DHT22;2376;53.544;10.226;2023-07-29T00:18:12;20.10;99.90
4725;DHT22;2376;53.544;10.226;2023-07-29T00:20:39;20.10;99.90
4725;DHT22;2376;53.544;10.226;2023-07-29T00:23:05;20.10;99.90
4725;DHT22;2376;53.544;10.226;2023-07-29T00:25:32;20.00;99.90
4725;DHT22;2376;53.544;10.226;2023-07-29T00:27:59;20.00;99.90
4725;DHT22;2376;53.544;10.226;2023-07-29T00:30:27;20.00;99.90
4725;DHT22;2376;53.544;10.226;2023-07-29T00:32:53;20.00;99.90
4725;DHT22;2376;53.544;10.226;2023-07-29T00:35:20;19.90;99.90
4725;DHT22;2376;53.544;10.226;2023-07-29T00:37:47;19.90;99.90
4725;DHT22;2376;53.544;10.226;2023-07-29T00:40:17;19.80;99.90
4725;DHT22;2376;53.544;10.226;2023-07-29T00:42:45;19.80;99.90
4725;DHT22;2376;53.544;10.226;2023-07-29T00:45:12;19.80;99.90
4725;DHT22;2376;53.544;10.226;2023-07-29T00:47:41;19.70;99.90
4725;DHT22;2376;53.544;10.226;2023-07-29T00:50:09;19.70;99.90
4725;DHT22;2376;53.544;10.226;2023-07-29T00:52:36;19.70;99.90
4725;DHT22;2376;53.544;10.226;2023-07-29T00:55:04;19.60;99.90
4725;DHT22;2376;53.544;10.226;2023-07-29T00:57:31;19.60;99.90
4725;DHT22;2376;53.544;10.226;2023-07-29T00:59:59;19.50;99.90
4725;DHT22;2376;53.544;10.226;2023-07-29T01:02:27;19.50;99.90
4725;DHT22;2376;53.544;10.226;2023-07-29T01:04:58;19.50;99.90
4725;DHT22;2376;53.544;10.226;2023-07-29T01:07:38;19.50;99.90
4725;DHT22;2376;53.544;10.226;2023-07-29T01:10:12;19.40;99.90
4725;DHT22;2376;53.544;10.226;2023-07-29T01:12:48;19.40;99.90
4725;DHT22;2376;53.544;10.226;2023-07-29T01:15:21;19.40;99.90
4725;DHT22;2376;53.544;10.226;2023-07-29T01:17:53;19.40;99.90
4725;DHT22;2376;53.544;10.226;2023-07-29T01:20:24;19.40;99.90
4725;DHT22;2376;53.544;10.226;2023-07-29T01:22:51;19.40;99.90
4725;DHT22;2376;53.544;10.226;2023-07-29T01:25:18;19.30;99.90
4725;DHT22;2376;53.544;10.226;2023-07-29T01:27:46;19.30;99.90
4725;DHT22;2376;53.544;10.226;2023-07-29T01:30:13;19.30;99.90
4725;DHT22;2376;53.544;10.226;2023-07-29T01:32:43;19.30;99.90
4725;DHT22;2376;53.544;10.226;2023-07-29T01:35:19;19.30;99.90
4725;DHT22;2376;53.544;10.226;2023-07-29T01:37:52;19.30;99.90
4725;DHT22;2376;53.544;10.226;2023-07-29T01:40:22;19.30;99.90
4725;DHT22;2376;53.544;10.226;2023-07-29T01:42:49;19.30;99.90
4725;DHT22;2376;53.544;10.226;2023-07-29T01:45:17;19.30;99.90
4725;DHT22;2376;53.544;10.226;2023-07-29T01:47:43;19.30;99.90
4725;DHT22;2376;53.544;10.226;2023-07-29T01:50:11;19.40;99.90
4725;DHT22;2376;53.544;10.226;2023-07-29T01:52:37;19.40;99.90
4725;DHT22;2376;53.544;10.226;2023-07-29T01:55:05;19.40;99.90
4725;DHT22;2376;53.544;10.226;2023-07-29T01:57:33;19.40;99.90
4725;DHT22;2376;53.544;10.226;2023-07-29T01:59:59;19.40;99.90
4725;DHT22;2376;53.544;10.226;2023-07-29T02:02:26;19.40;99.90
4725;DHT22;2376;53.544;10.226;2023-07-29T02:04:53;19.50;99.90
4725;DHT22;2376;53.544;10.226;2023-07-29T02:07:21;19.40;99.90
4725;DHT22;2376;53.544;10.226;2023-07-29T02:09:48;19.50;99.90
4725;DHT22;2376;53.544;10.226;2023-07-29T02:12:14;19.50;99.90
4725;DHT22;2376;53.544;10.226;2023-07-29T02:14:42;19.50;99.90
4725;DHT22;2376;53.544;10.226;2023-07-29T02:17:09;19.50;99.90
4725;DHT22;2376;53.544;10.226;2023-07-29T02:19:36;19.50;99.90
4725;DHT22;2376;53.544;10.226;2023-07-29T02:22:02;19.50;99.90
4725;DHT22;2376;53.544;10.226;2023-07-29T02:24:29;19.50;99.90
4725;DHT22;2376;53.544;10.226;2023-07-29T02:26:56;19.60;99.90
4725;DHT22;2376;53.544;10.226;2023-07-29T02:29:22;19.60;99.90
4725;DHT22;2376;53.544;10.226;2023-07-29T02:31:51;19.60;99.90
4725;DHT22;2376;53.544;10.226;2023-07-29T02:34:18;19.60;99.90
4725;DHT22;2376;53.544;10.226;2023-07-29T02:36:45;19.60;99.90
4725;DHT22;2376;53.544;10.226;2023-07-29T02:39:11;19.70;99.90
4725;DHT22;2376;53.544;10.226;2023-07-29T02:41:38;19.70;99.90
4725;DHT22;2376;53.544;10.226;2023-07-29T02:44:05;19.70;99.90
4725;DHT22;2376;53.544;10.226;2023-07-29T02:46:32;19.70;99.90
4725;DHT22;2376;53.544;10.226;2023-07-29T02:49:01;19.70;99.90
4725;DHT22;2376;53.544;10.226;2023-07-29T02:51:27;19.70;99.90
4725;DHT22;2376;53.544;10.226;2023-07-29T02:53:54;19.70;99.90
4725;DHT22;2376;53.544;10.226;2023-07-29T02:56:21;19.70;99.90
4725;DHT22;2376;53.544;10.226;2023-07-29T02:58:47;19.70;99.90
4725;DHT22;2376;53.544;10.226;2023-07-29T03:01:14;19.70;99.90
4725;DHT22;2376;53.544;10.226;2023-07-29T03:03:41;19.60;99.90
4725;DHT22;2376;53.544;10.226;2023-07-29T03:06:11;19.60;99.90
4725;DHT22;2376;53.544;10.226;2023-07-29T03:08:38;19.70;99.90
4725;DHT22;2376;53.544;10.226;2023-07-29T03:11:06;19.70;99.90
4725;DHT22;2376;53.544;10.226;2023-07-29T03:13:33;19.70;99.90
4725;DHT22;2376;53.544;10.226;2023-07-29T03:16:05;19.70;99.90
4725;DHT22;2376;53.544;10.226;2023-07-29T03:18:32;19.60;99.90
4725;DHT22;2376;53.544;10.226;2023-07-29T03:20:59;19.60;99.90
4725;DHT22;2376;53.544;10.226;2023-07-29T03:23:27;19.60;99.90
4725;DHT22;2376;53.544;10.226;2023-07-29T03:25:55;19.60;99.90
4725;DHT22;2376;53.544;10.226;2023-07-29T03:28:23;19.60;99.90
4725;DHT22;2376;53.544;10.226;2023-07-29T03:30:50;19.60;99.90
4725;DHT22;2376;53.544;10.226;2023-07-29T03:33:17;19.60;99.90
4725;DHT22;2376;53.544;10.226;2023-07-29T03:35:44;19.50;99.90
4725;DHT22;2376;53.544;10.226;2023-07-29T03:38:11;19.50;99.90
4725;DHT22;2376;53.544;10.226;2023-07-29T03:40:39;19.50;99.90
4725;DHT22;2376;53.544;10.226;2023-07-29T03:43:06;19.50;99.90
4725;DHT22;2376;53.544;10.226;2023-07-29T03:45:33;19.50;99.90
4725;DHT22;2376;53.544;10.226;2023-07-29T03:48:00;19.50;99.90
4725;DHT22;2376;53.544;10.226;2023-07-29T03:50:28;19.50;99.90
4725;DHT22;2376;53.544;10.226;2023-07-29T03:52:56;19.50;99.90
4725;DHT22;2376;53.544;10.226;2023-07-29T03:55:22;19.50;99.90
4725;DHT22;2376;53.544;10.226;2023-07-29T03:57:50;19.50;99.90
4725;DHT22;2376;53.544;10.226;2023-07-29T04:00:17;19.50;99.90
4725;DHT22;2376;53.544;10.226;2023-07-29T04:02:44;19.50;99.90
4725;DHT22;2376;53.544;10.226;2023-07-29T04:05:11;19.50;99.90
4725;DHT22;2376;53.544;10.226;2023-07-29T04:07:38;19.60;99.90
4725;DHT22;2376;53.544;10.226;2023-07-29T04:10:06;19.60;99.90
4725;DHT22;2376;53.544;10.226;2023-07-29T04:12:33;19.60;99.90
4725;DHT22;2376;53.544;10.226;2023-07-29T04:15:02;19.60;99.90
4725;DHT22;2376;53.544;10.226;2023-07-29T04:17:29;19.60;99.90
4725;DHT22;2376;53.544;10.226;2023-07-29T04:19:55;19.70;99.90
4725;DHT22;2376;53.544;10.226;2023-07-29T04:22:22;19.70;99.90
4725;DHT22;2376;53.544;10.226;2023-07-29T04:24:49;19.70;99.90
4725;DHT22;2376;53.544;10.226;2023-07-29T04:27:15;19.70;99.90
4725;DHT22;2376;53.544;10.226;2023-07-29T04:29:42;19.70;99.90
4725;DHT22;2376;53.544;10.226;2023-07-29T04:32:10;19.70;99.90
4725;DHT22;2376;53.544;10.226;2023-07-29T04:34:37;19.70;99.90
4725;DHT22;2376;53.544;10.226;2023-07-29T04:37:04;19.80;99.90
4725;DHT22;2376;53.544;10.226;2023-07-29T04:39:31;19.80;99.90
4725;DHT22;2376;53.544;10.226;2023-07-29T04:41:58;19.80;99.90
4725;DHT22;2376;53.544;10.226;2023-07-29T04:44:26;19.70;99.90
4725;DHT22;2376;53.544;10.226;2023-07-29T04:46:53;19.80;99.90
4725;DHT22;2376;53.544;10.226;2023-07-29T04:49:21;19.80;99.90
4725;DHT22;2376;53.544;10.226;2023-07-29T04:51:47;19.80;99.90
4725;DHT22;2376;53.544;10.226;2023-07-29T04:54:14;19.80;99.90
4725;DHT22;2376;53.544;10.226;2023-07-29T04:56:41;19.90;99.90
4725;DHT22;2376;53.544;10.226;2023-07-29T04:59:07;19.90;99.90
4725;DHT22;2376;53.544;10.226;2023-07-29T05:01:34;19.90;99.90
4725;DHT22;2376;53.544;10.226;2023-07-29T05:04:01;19.90;99.90
4725;DHT22;2376;53.544;10.226;2023-07-29T05:06:29;19.90;99.90
4725;DHT22;2376;53.544;10.226;2023-07-29T05:08:57;19.90;99.90
4725;DHT22;2376;53.544;10.226;2023-07-29T05:11:24;19.90;99.90
4725;DHT22;2376;53.544;10.226;2023-07-29T05:13:51;19.90;99.90
4725;DHT22;2376;53.544;10.226;2023-07-29T05:16:18;20.00;99.90
4725;DHT22;2376;53.544;10.226;2023-07-29T05:18:44;20.00;99.90
4725;DHT22;2376;53.544;10.226;2023-07-29T05:21:11;20.00;99.90
4725;DHT22;2376;53.544;10.226;2023-07-29T05:23:41;20.00;99.90
4725;DHT22;2376;53.544;10.226;2023-07-29T05:26:07;20.10;99.90
4725;DHT22;2376;53.544;10.226;2023-07-29T05:28:34;20.10;99.90
4725;DHT22;2376;53.544;10.226;2023-07-29T05:31:01;20.10;99.90
4725;DHT22;2376;53.544;10.226;2023-07-29T05:33:28;20.10;99.90
4725;DHT22;2376;53.544;10.226;2023-07-29T05:35:55;20.10;99.90
4725;DHT22;2376;53.544;10.226;2023-07-29T05:38:22;20.10;99.90
4725;DHT22;2376;53.544;10.226;2023-07-29T05:40:50;20.10;99.90
4725;DHT22;2376;53.544;10.226;2023-07-29T05:43:16;20.10;99.90
4725;DHT22;2376;53.544;10.226;2023-07-29T05:45:43;20.20;99.90
4725;DHT22;2376;53.544;10.226;2023-07-29T05:48:10;20.20;99.90
4725;DHT22;2376;53.544;10.226;2023-07-29T05:50:37;20.20;99.90
4725;DHT22;2376;53.544;10.226;2023-07-29T05:53:03;20.30;99.90
4725;DHT22;2376;53.544;10.226;2023-07-29T05:55:30;20.30;99.90
4725;DHT22;2376;53.544;10.226;2023-07-29T05:57:58;20.40;99.90
4725;DHT22;2376;53.544;10.226;2023-07-29T06:00:25;20.40;99.90
4725;DHT22;2376;53.544;10.226;2023-07-29T06:02:52;20.40;99.90
4725;DHT22;2376;53.544;10.226;2023-07-29T06:05:18;20.50;99.90
4725;DHT22;2376;53.544;10.226;2023-07-29T06:07:45;20.60;99.90
4725;DHT22;2376;53.544;10.226;2023-07-29T06:10:14;20.70;99.90
4725;DHT22;2376;53.544;10.226;2023-07-29T06:12:43;20.80;99.90
4725;DHT22;2376;53.544;10.226;2023-07-29T06:15:11;20.80;99.90
4725;DHT22;2376;53.544;10.226;2023-07-29T06:17:38;20.90;99.90
4725;DHT22;2376;53.544;10.226;2023-07-29T06:20:06;20.80;99.90
4725;DHT22;2376;53.544;10.226;2023-07-29T06:22:33;20.90;99.90
4725;DHT22;2376;53.544;10.226;2023-07-29T06:24:59;20.90;99.90
4725;DHT22;2376;53.544;10.226;2023-07-29T06:27:26;21.00;99.90
4725;DHT22;2376;53.544;10.226;2023-07-29T06:29:53;21.00;99.90
4725;DHT22;2376;53.544;10.226;2023-07-29T06:32:21;21.00;99.90
4725;DHT22;2376;53.544;10.226;2023-07-29T06:34:47;21.10;99.90
4725;DHT22;2376;53.544;10.226;2023-07-29T06:37:14;21.10;99.90
4725;DHT22;2376;53.544;10.226;2023-07-29T06:39:41;21.10;99.90
4725;DHT22;2376;53.544;10.226;2023-07-29T06:42:08;21.10;99.90
4725;DHT22;2376;53.544;10.226;2023-07-29T06:44:34;21.10;99.90
4725;DHT22;2376;53.544;10.226;2023-07-29T06:47:01;21.20;99.90
4725;DHT22;2376;53.544;10.226;2023-07-29T06:49:29;21.20;99.90
4725;DHT22;2376;53.544;10.226;2023-07-29T06:51:56;21.30;99.90
4725;DHT22;2376;53.544;10.226;2023-07-29T06:54:24;21.40;99.90
4725;DHT22;2376;53.544;10.226;2023-07-29T06:56:51;21.50;99.90
4725;DHT22;2376;53.544;10.226;2023-07-29T06:59:17;21.50;99.90
4725;DHT22;2376;53.544;10.226;2023-07-29T07:01:44;21.50;99.90
4725;DHT22;2376;53.544;10.226;2023-07-29T07:04:11;21.60;99.90
4725;DHT22;2376;53.544;10.226;2023-07-29T07:06:39;21.70;99.90
4725;DHT22;2376;53.544;10.226;2023-07-29T07:09:05;21.80;99.90
4725;DHT22;2376;53.544;10.226;2023-07-29T07:11:32;21.90;99.90
4725;DHT22;2376;53.544;10.226;2023-07-29T07:13:59;21.90;99.90
4725;DHT22;2376;53.544;10.226;2023-07-29T07:16:26;22.00;99.90
4725;DHT22;2376;53.544;10.226;2023-07-29T07:18:54;22.00;99.90
4725;DHT22;2376;53.544;10.226;2023-07-29T07:21:21;22.00;99.90
4725;DHT22;2376;53.544;10.226;2023-07-29T07:23:50;22.00;99.90
4725;DHT22;2376;53.544;10.226;2023-07-29T07:26:17;22.00;99.90
4725;DHT22;2376;53.544;10.226;2023-07-29T07:28:44;22.00;99.90
4725;DHT22;2376;53.544;10.226;2023-07-29T07:31:10;22.00;99.90
4725;DHT22;2376;53.544;10.226;2023-07-29T07:33:37;22.00;99.90
4725;DHT22;2376;53.544;10.226;2023-07-29T07:36:04;21.90;99.90
4725;DHT22;2376;53.544;10.226;2023-07-29T07:38:31;21.90;99.90
4725;DHT22;2376;53.544;10.226;2023-07-29T07:40:59;21.90;99.90
4725;DHT22;2376;53.544;10.226;2023-07-29T07:43:26;21.90;99.90
4725;DHT22;2376;53.544;10.226;2023-07-29T07:45:58;22.00;99.90
4725;DHT22;2376;53.544;10.226;2023-07-29T07:48:25;22.10;99.90
4725;DHT22;2376;53.544;10.226;2023-07-29T07:50:52;22.10;99.90
4725;DHT22;2376;53.544;10.226;2023-07-29T07:53:19;22.10;99.90
4725;DHT22;2376;53.544;10.226;2023-07-29T07:55:45;22.10;99.90
4725;DHT22;2376;53.544;10.226;2023-07-29T07:58:13;22.00;99.90
4725;DHT22;2376;53.544;10.226;2023-07-29T08:00:40;22.10;99.90
4725;DHT22;2376;53.544;10.226;2023-07-29T08:03:07;22.00;99.90
4725;DHT22;2376;53.544;10.226;2023-07-29T08:05:34;22.10;99.90
4725;DHT22;2376;53.544;10.226;2023-07-29T08:08:00;22.10;99.90
4725;DHT22;2376;53.544;10.226;2023-07-29T08:10:27;22.10;99.90
4725;DHT22;2376;53.544;10.226;2023-07-29T08:12:54;22.10;99.90
4725;DHT22;2376;53.544;10.226;2023-07-29T08:15:22;22.20;99.90
4725;DHT22;2376;53.544;10.226;2023-07-29T08:17:48;22.20;99.90
4725;DHT22;2376;53.544;10.226;2023-07-29T08:20:15;22.20;99.90
4725;DHT22;2376;53.544;10.226;2023-07-29T08:22:42;22.20;99.90
4725;DHT22;2376;53.544;10.226;2023-07-29T08:25:09;22.20;99.90
4725;DHT22;2376;53.544;10.226;2023-07-29T08:27:36;22.20;99.90
4725;DHT22;2376;53.544;10.226;2023-07-29T08:30:03;22.20;99.90
4725;DHT22;2376;53.544;10.226;2023-07-29T08:32:31;22.20;99.90
4725;DHT22;2376;53.544;10.226;2023-07-29T08:34:58;22.20;99.90
4725;DHT22;2376;53.544;10.226;2023-07-29T08:37:24;22.20;99.90
4725;DHT22;2376;53.544;10.226;2023-07-29T08:39:52;22.30;99.90
4725;DHT22;2376;53.544;10.226;2023-07-29T08:42:21;22.30;99.90
4725;DHT22;2376;53.544;10.226;2023-07-29T08:44:49;22.30;99.90
4725;DHT22;2376;53.544;10.226;2023-07-29T08:47:18;22.30;99.90
4725;DHT22;2376;53.544;10.226;2023-07-29T08:49:47;22.20;99.90
4725;DHT22;2376;53.544;10.226;2023-07-29T08:52:18;22.20;99.90
4725;DHT22;2376;53.544;10.226;2023-07-29T08:54:45;22.00;99.90
4725;DHT22;2376;53.544;10.226;2023-07-29T08:57:13;21.90;99.90
4725;DHT22;2376;53.544;10.226;2023-07-29T08:59:40;21.90;99.90
4725;DHT22;2376;53.544;10.226;2023-07-29T09:02:08;21.90;99.90
4725;DHT22;2376;53.544;10.226;2023-07-29T09:04:34;22.00;99.90
4725;DHT22;2376;53.544;10.226;2023-07-29T09:07:03;22.10;99.90
4725;DHT22;2376;53.544;10.226;2023-07-29T09:09:31;22.10;99.90
4725;DHT22;2376;53.544;10.226;2023-07-29T09:11:58;22.20;99.90
4725;DHT22;2376;53.544;10.226;2023-07-29T09:14:25;22.30;99.90
4725;DHT22;2376;53.544;10.226;2023-07-29T09:16:53;22.30;99.90
4725;DHT22;2376;53.544;10.226;2023-07-29T09:19:20;22.30;99.90
4725;DHT22;2376;53.544;10.226;2023-07-29T09:21:47;22.40;99.90
4725;DHT22;2376;53.544;10.226;2023-07-29T09:24:17;22.40;99.90
4725;DHT22;2376;53.544;10.226;2023-07-29T09:26:49;22.50;99.90
4725;DHT22;2376;53.544;10.226;2023-07-29T09:29:16;22.60;99.90
4725;DHT22;2376;53.544;10.226;2023-07-29T09:31:47;22.70;99.90
4725;DHT22;2376;53.544;10.226;2023-07-29T09:34:15;22.70;99.90
4725;DHT22;2376;53.544;10.226;2023-07-29T09:36:42;22.70;99.90
4725;DHT22;2376;53.544;10.226;2023-07-29T09:39:11;22.80;99.90
4725;DHT22;2376;53.544;10.226;2023-07-29T09:41:39;22.90;99.90
4725;DHT22;2376;53.544;10.226;2023-07-29T09:44:07;22.90;99.90
4725;DHT22;2376;53.544;10.226;2023-07-29T09:46:35;23.10;99.90
4725;DHT22;2376;53.544;10.226;2023-07-29T09:49:03;23.10;99.90
4725;DHT22;2376;53.544;10.226;2023-07-29T09:51:31;23.20;99.90
4725;DHT22;2376;53.544;10.226;2023-07-29T09:54:02;23.30;99.90
4725;DHT22;2376;53.544;10.226;2023-07-29T09:56:29;23.30;99.90
4725;DHT22;2376;53.544;10.226;2023-07-29T09:58:57;23.30;99.90
4725;DHT22;2376;53.544;10.226;2023-07-29T10:01:24;23.30;99.90
4725;DHT22;2376;53.544;10.226;2023-07-29T10:03:51;23.30;99.90
4725;DHT22;2376;53.544;10.226;2023-07-29T10:06:18;23.20;99.90
4725;DHT22;2376;53.544;10.226;2023-07-29T10:08:45;23.20;99.90
4725;DHT22;2376;53.544;10.226;2023-07-29T10:11:12;23.10;99.90
4725;DHT22;2376;53.544;10.226;2023-07-29T10:13:39;23.10;99.90
4725;DHT22;2376;53.544;10.226;2023-07-29T10:16:07;23.10;99.90
4725;DHT22;2376;53.544;10.226;2023-07-29T10:18:35;23.10;99.90
4725;DHT22;2376;53.544;10.226;2023-07-29T10:21:02;23.20;99.90
4725;DHT22;2376;53.544;10.226;2023-07-29T10:23:34;23.20;99.90
4725;DHT22;2376;53.544;10.226;2023-07-29T10:26:05;23.20;99.90
4725;DHT22;2376;53.544;10.226;2023-07-29T10:28:33;23.30;99.90
4725;DHT22;2376;53.544;10.226;2023-07-29T10:31:03;23.50;99.90
4725;DHT22;2376;53.544;10.226;2023-07-29T10:33:32;23.50;99.90
4725;DHT22;2376;53.544;10.226;2023-07-29T10:35:59;23.60;99.90
4725;DHT22;2376;53.544;10.226;2023-07-29T10:38:26;23.60;99.90
4725;DHT22;2376;53.544;10.226;2023-07-29T10:40:55;23.70;99.90
4725;DHT22;2376;53.544;10.226;2023-07-29T10:43:25;23.70;99.90
4725;DHT22;2376;53.544;10.226;2023-07-29T10:45:52;23.80;99.90
4725;DHT22;2376;53.544;10.226;2023-07-29T10:48:40;23.90;99.90
4725;DHT22;2376;53.544;10.226;2023-07-29T10:51:22;24.00;99.90
4725;DHT22;2376;53.544;10.226;2023-07-29T10:53:52;24.10;99.90
4725;DHT22;2376;53.544;10.226;2023-07-29T10:56:26;24.10;99.90
4725;DHT22;2376;53.544;10.226;2023-07-29T10:58:55;24.10;99.90
4725;DHT22;2376;53.544;10.226;2023-07-29T11:01:26;24.30;99.90
4725;DHT22;2376;53.544;10.226;2023-07-29T11:04:26;24.30;99.90
4725;DHT22;2376;53.544;10.226;2023-07-29T11:07:18;24.40;99.90
4725;DHT22;2376;53.544;10.226;2023-07-29T11:09:59;24.50;99.90
4725;DHT22;2376;53.544;10.226;2023-07-29T11:12:50;24.50;99.90
4725;DHT22;2376;53.544;10.226;2023-07-29T11:15:19;24.40;99.90
4725;DHT22;2376;53.544;10.226;2023-07-29T11:17:48;24.40;99.90
4725;DHT22;2376;53.544;10.226;2023-07-29T11:20:16;24.40;99.90
4725;DHT22;2376;53.544;10.226;2023-07-29T11:22:44;24.40;99.90
4725;DHT22;2376;53.544;10.226;2023-07-29T11:25:12;24.40;99.90
4725;DHT22;2376;53.544;10.226;2023-07-29T11:27:40;24.40;99.90
4725;DHT22;2376;53.544;10.226;2023-07-29T11:30:07;24.30;99.90
4725;DHT22;2376;53.544;10.226;2023-07-29T11:32:35;24.20;99.90
4725;DHT22;2376;53.544;10.226;2023-07-29T11:35:03;24.30;99.90
4725;DHT22;2376;53.544;10.226;2023-07-29T11:37:32;24.40;99.90
4725;DHT22;2376;53.544;10.226;2023-07-29T11:39:59;24.50;99.90
4725;DHT22;2376;53.544;10.226;2023-07-29T11:42:27;24.50;99.90
4725;DHT22;2376;53.544;10.226;2023-07-29T11:44:56;24.50;99.90
4725;DHT22;2376;53.544;10.226;2023-07-29T11:47:23;24.50;99.90
4725;DHT22;2376;53.544;10.226;2023-07-29T11:49:50;24.50;99.90
4725;DHT22;2376;53.544;10.226;2023-07-29T11:52:17;24.60;99.90
4725;DHT22;2376;53.544;10.226;2023-07-29T11:54:47;24.60;99.90
4725;DHT22;2376;53.544;10.226;2023-07-29T11:57:14;24.60;99.90
4725;DHT22;2376;53.544;10.226;2023-07-29T11:59:42;24.60;99.90
4725;DHT22;2376;53.544;10.226;2023-07-29T12:02:11;24.60;99.90
4725;DHT22;2376;53.544;10.226;2023-07-29T12:04:40;24.70;99.90
4725;DHT22;2376;53.544;10.226;2023-07-29T12:07:08;24.70;99.90
4725;DHT22;2376;53.544;10.226;2023-07-29T12:09:35;24.70;99.90
4725;DHT22;2376;53.544;10.226;2023-07-29T12:12:04;24.70;99.90
4725;DHT22;2376;53.544;10.226;2023-07-29T12:14:31;24.70;99.90
4725;DHT22;2376;53.544;10.226;2023-07-29T12:17:00;24.70;99.90
4725;DHT22;2376;53.544;10.226;2023-07-29T12:19:32;24.90;99.90
4725;DHT22;2376;53.544;10.226;2023-07-29T12:21:59;24.90;99.90
4725;DHT22;2376;53.544;10.226;2023-07-29T12:24:26;24.90;99.90
4725;DHT22;2376;53.544;10.226;2023-07-29T12:26:53;24.90;99.90
4725;DHT22;2376;53.544;10.226;2023-07-29T12:29:21;24.80;99.90
4725;DHT22;2376;53.544;10.226;2023-07-29T12:31:49;24.80;99.90
4725;DHT22;2376;53.544;10.226;2023-07-29T12:34:25;24.90;99.90
4725;DHT22;2376;53.544;10.226;2023-07-29T12:36:52;24.90;99.90
4725;DHT22;2376;53.544;10.226;2023-07-29T12:39:20;25.10;99.90
4725;DHT22;2376;53.544;10.226;2023-07-29T12:41:48;25.30;99.90
4725;DHT22;2376;53.544;10.226;2023-07-29T12:44:15;25.40;99.90
4725;DHT22;2376;53.544;10.226;2023-07-29T12:46:43;25.60;99.90
4725;DHT22;2376;53.544;10.226;2023-07-29T12:49:10;25.70;99.90
4725;DHT22;2376;53.544;10.226;2023-07-29T12:51:37;25.80;99.90
4725;DHT22;2376;53.544;10.226;2023-07-29T12:54:04;25.80;99.90
4725;DHT22;2376;53.544;10.226;2023-07-29T12:56:32;25.80;99.90
4725;DHT22;2376;53.544;10.226;2023-07-29T12:58:59;25.90;99.90
4725;DHT22;2376;53.544;10.226;2023-07-29T13:01:26;25.90;99.90
4725;DHT22;2376;53.544;10.226;2023-07-29T13:03:55;25.90;99.90
4725;DHT22;2376;53.544;10.226;2023-07-29T13:06:22;25.90;99.90
4725;DHT22;2376;53.544;10.226;2023-07-29T13:08:49;25.90;99.90
4725;DHT22;2376;53.544;10.226;2023-07-29T13:11:16;25.90;99.90
4725;DHT22;2376;53.544;10.226;2023-07-29T13:13:43;25.80;99.90
4725;DHT22;2376;53.544;10.226;2023-07-29T13:16:11;25.80;99.90
4725;DHT22;2376;53.544;10.226;2023-07-29T13:18:39;25.90;99.90
4725;DHT22;2376;53.544;10.226;2023-07-29T13:21:07;25.90;99.90
4725;DHT22;2376;53.544;10.226;2023-07-29T13:23:35;25.90;99.90
4725;DHT22;2376;53.544;10.226;2023-07-29T13:26:02;26.00;99.90
4725;DHT22;2376;53.544;10.226;2023-07-29T13:28:29;25.90;99.90
4725;DHT22;2376;53.544;10.226;2023-07-29T13:30:56;26.00;99.90
4725;DHT22;2376;53.544;10.226;2023-07-29T13:33:22;25.70;99.90
4725;DHT22;2376;53.544;10.226;2023-07-29T13:35:49;25.80;99.90
4725;DHT22;2376;53.544;10.226;2023-07-29T13:38:17;25.80;99.90
4725;DHT22;2376;53.544;10.226;2023-07-29T13:40:45;25.80;99.90
4725;DHT22;2376;53.544;10.226;2023-07-29T13:43:12;25.70;99.90
4725;DHT22;2376;53.544;10.226;2023-07-29T13:45:39;25.70;99.90
4725;DHT22;2376;53.544;10.226;2023-07-29T13:48:05;25.70;99.90
4725;DHT22;2376;53.544;10.226;2023-07-29T13:50:32;25.60;99.90
4725;DHT22;2376;53.544;10.226;2023-07-29T13:52:59;25.70;99.90
4725;DHT22;2376;53.544;10.226;2023-07-29T13:55:27;25.70;99.90
4725;DHT22;2376;53.544;10.226;2023-07-29T13:57:53;25.70;99.90
4725;DHT22;2376;53.544;10.226;2023-07-29T14:00:20;25.80;99.90
4725;DHT22;2376;53.544;10.226;2023-07-29T14:02:47;25.80;99.90
4725;DHT22;2376;53.544;10.226;2023-07-29T14:05:14;25.90;99.90
4725;DHT22;2376;53.544;10.226;2023-07-29T14:07:41;25.90;99.90
4725;DHT22;2376;53.544;10.226;2023-07-29T14:10:07;26.00;99.90
4725;DHT22;2376;53.544;10.226;2023-07-29T14:12:36;26.00;99.90
4725;DHT22;2376;53.544;10.226;2023-07-29T14:15:04;26.00;99.90
4725;DHT22;2376;53.544;10.226;2023-07-29T14:17:31;26.20;99.90
4725;DHT22;2376;53.544;10.226;2023-07-29T14:19:58;26.20;99.90
4725;DHT22;2376;53.544;10.226;2023-07-29T14:22:24;26.20;99.90
4725;DHT22;2376;53.544;10.226;2023-07-29T14:24:51;26.20;99.90
4725;DHT22;2376;53.544;10.226;2023-07-29T14:27:18;26.20;99.90
4725;DHT22;2376;53.544;10.226;2023-07-29T14:29:46;26.30;99.90
4725;DHT22;2376;53.544;10.226;2023-07-29T14:32:12;26.40;99.90
4725;DHT22;2376;53.544;10.226;2023-07-29T14:34:39;26.50;99.90
4725;DHT22;2376;53.544;10.226;2023-07-29T14:37:06;26.40;99.90
4725;DHT22;2376;53.544;10.226;2023-07-29T14:39:32;26.40;99.90
4725;DHT22;2376;53.544;10.226;2023-07-29T14:41:59;26.40;99.90
4725;DHT22;2376;53.544;10.226;2023-07-29T14:44:26;26.40;99.90
4725;DHT22;2376;53.544;10.226;2023-07-29T14:46:54;26.50;99.90
4725;DHT22;2376;53.544;10.226;2023-07-29T14:49:20;26.50;99.90
4725;DHT22;2376;53.544;10.226;2023-07-29T14:51:47;26.40;99.90
4725;DHT22;2376;53.544;10.226;2023-07-29T14:54:14;26.40;99.90
4725;DHT22;2376;53.544;10.226;2023-07-29T14:56:41;26.60;99.90
4725;DHT22;2376;53.544;10.226;2023-07-29T14:59:07;26.50;99.90
4725;DHT22;2376;53.544;10.226;2023-07-29T15:01:34;26.60;99.90
4725;DHT22;2376;53.544;10.226;2023-07-29T15:04:02;26.70;99.90
4725;DHT22;2376;53.544;10.226;2023-07-29T15:06:29;26.90;99.90
4725;DHT22;2376;53.544;10.226;2023-07-29T15:08:56;27.20;99.50
4725;DHT22;2376;53.544;10.226;2023-07-29T15:11:23;27.40;98.60
4725;DHT22;2376;53.544;10.226;2023-07-29T15:13:49;27.50;96.10
4725;DHT22;2376;53.544;10.226;2023-07-29T15:16:16;27.80;94.80
4725;DHT22;2376;53.544;10.226;2023-07-29T15:18:42;28.00;93.20
4725;DHT22;2376;53.544;10.226;2023-07-29T15:21:10;28.20;91.00
4725;DHT22;2376;53.544;10.226;2023-07-29T15:23:37;28.40;88.20
4725;DHT22;2376;53.544;10.226;2023-07-29T15:26:04;28.50;85.50
4725;DHT22;2376;53.544;10.226;2023-07-29T15:28:30;28.60;83.40
4725;DHT22;2376;53.544;10.226;2023-07-29T15:30:57;28.70;81.00
4725;DHT22;2376;53.544;10.226;2023-07-29T15:33:24;28.70;77.80
4725;DHT22;2376;53.544;10.226;2023-07-29T15:35:50;28.80;77.10
4725;DHT22;2376;53.544;10.226;2023-07-29T15:38:19;28.70;75.90
4725;DHT22;2376;53.544;10.226;2023-07-29T15:40:45;28.80;76.10
4725;DHT22;2376;53.544;10.226;2023-07-29T15:43:14;28.90;73.70
4725;DHT22;2376;53.544;10.226;2023-07-29T15:45:41;29.10;71.40
4725;DHT22;2376;53.544;10.226;2023-07-29T15:48:07;29.20;70.40